Time;durP1;ratioP1;P1;durP2;ratioP2;P2;SDS_P1;SDS_P2;PMS_P1;PMS_P2;Temp;Humidity;BMP_temperature;BMP_pressure;BME280_temperature;BME280_humidity;BME280_pressure;Samples;Min_cycle;Max_cycle;Signal;HPM_P1;HPM_P2
2021/12/25 00:00:25;;;;;;;11.77;5.10;;;15.80;64.70;;;;;;1989418;28;20244;-69
2021/12/25 00:01:25;;;;;;;15.40;5.97;;;15.80;64.70;;;;;;1989504;28;20220;-72
2021/12/25 00:02:24;;;;;;;11.27;5.78;;;15.80;64.50;;;;;;1989579;28;20170;-70
2021/12/25 00:03:23;;;;;;;17.30;5.82;;;15.80;64.50;;;;;;1989423;28;20297;-70
2021/12/25 00:04:21;;;;;;;9.00;5.13;;;15.80;64.40;;;;;;1989524;28;20170;-70
2021/12/25 00:05:20;;;;;;;15.50;6.30;;;15.80;64.50;;;;;;1989469;28;20630;-70
2021/12/25 00:06:19;;;;;;;10.83;4.97;;;15.80;64.30;;;;;;1989552;28;20194;-71
2021/12/25 00:07:18;;;;;;;11.23;4.87;;;15.80;64.40;;;;;;1989486;28;20185;-70
2021/12/25 00:08:16;;;;;;;15.00;6.07;;;15.80;64.20;;;;;;1989437;28;20398;-71
2021/12/25 00:09:15;;;;;;;12.10;5.20;;;15.80;64.40;;;;;;1989457;28;20205;-71
2021/12/25 00:10:14;;;;;;;9.40;4.90;;;15.70;64.30;;;;;;1988735;28;20171;-70
2021/12/25 00:11:13;;;;;;;8.60;4.30;;;15.70;64.30;;;;;;1988880;28;20265;-71
2021/12/25 00:12:11;;;;;;;17.60;5.13;;;15.90;64.50;;;;;;1989453;28;20443;-71
2021/12/25 00:13:09;;;;;;;10.50;5.10;;;15.70;64.20;;;;;;1989343;28;20190;-71
2021/12/25 00:14:11;;;;;;;12.80;5.70;;;15.70;64.30;;;;;;1989423;28;20265;-71
2021/12/25 00:15:10;;;;;;;8.80;5.40;;;15.70;64.10;;;;;;1989397;28;20174;-71
2021/12/25 00:16:09;;;;;;;15.00;5.00;;;15.70;64.20;;;;;;1989253;28;20608;-71
2021/12/25 00:17:07;;;;;;;10.45;4.72;;;15.70;64.20;;;;;;1989559;28;20178;-71
2021/12/25 00:18:06;;;;;;;7.97;5.00;;;15.70;64.10;;;;;;1988703;28;20309;-71
2021/12/25 00:19:05;;;;;;;8.87;4.47;;;15.70;64.20;;;;;;1988876;28;20206;-71
2021/12/25 00:20:04;;;;;;;8.65;5.07;;;15.70;64.20;;;;;;1989366;28;20649;-71
2021/12/25 00:21:03;;;;;;;9.05;5.38;;;15.70;64.20;;;;;;1989307;28;20190;-71
2021/12/25 00:22:02;;;;;;;12.23;5.70;;;15.70;64.20;;;;;;1988852;28;20556;-70
2021/12/25 00:23:04;;;;;;;9.20;4.30;;;15.70;64.40;;;;;;1988667;28;20179;-70
2021/12/25 00:24:03;;;;;;;9.30;4.60;;;15.70;64.40;;;;;;1989554;28;20426;-70
2021/12/25 00:25:02;;;;;;;9.75;4.70;;;15.70;64.10;;;;;;1989285;28;20626;-71
2021/12/25 00:26:07;;;;;;;10.27;4.60;;;15.70;64.30;;;;;;1989236;28;20170;-71
2021/12/25 00:27:21;;;;;;;7.22;4.05;;;15.70;64.10;;;;;;1989254;28;20245;-71
2021/12/25 00:29:36;;;;;;;7.13;4.18;;;15.60;64.20;;;;;;1989529;28;20165;-71
2021/12/25 00:30:42;;;;;;;9.23;4.85;;;15.60;64.30;;;;;;1989443;28;20182;-71
2021/12/25 00:31:51;;;;;;;11.15;5.05;;;15.60;64.20;;;;;;1989230;28;20192;-71
2021/12/25 00:33:07;;;;;;;11.75;5.10;;;15.60;64.40;;;;;;1989331;28;20151;-72
2021/12/25 00:34:05;;;;;;;10.52;5.13;;;15.60;64.40;;;;;;1989451;28;20519;-71
2021/12/25 00:35:04;;;;;;;10.10;4.70;;;15.60;64.30;;;;;;1989182;28;20185;-71
2021/12/25 00:36:04;;;;;;;13.43;5.13;;;15.50;64.40;;;;;;1989127;28;20226;-70
2021/12/25 00:37:04;;;;;;;13.93;5.43;;;15.60;64.50;;;;;;1989259;28;20535;-71
2021/12/25 00:38:02;;;;;;;12.57;6.15;;;15.60;64.60;;;;;;1989351;28;20193;-70
2021/12/25 00:39:01;;;;;;;17.33;6.30;;;15.60;64.60;;;;;;1989342;28;20644;-70
2021/12/25 00:39:59;;;;;;;17.60;5.93;;;15.50;64.80;;;;;;1989189;28;20410;-70
2021/12/25 00:40:59;;;;;;;12.13;4.97;;;15.60;64.90;;;;;;1989371;28;20173;-70
2021/12/25 00:41:59;;;;;;;12.43;5.85;;;15.60;65.20;;;;;;1989211;28;20178;-70
2021/12/25 00:42:57;;;;;;;12.55;5.90;;;15.50;66.90;;;;;;1988846;28;20186;-70
2021/12/25 00:43:56;;;;;;;14.13;5.70;;;;;;;;;;1989206;28;20166;-71
2021/12/25 00:44:55;;;;;;;11.63;5.70;;;;;;;;;;1989268;28;20170;-71
2021/12/25 00:45:54;;;;;;;11.40;5.27;;;14.80;72.80;;;;;;1989111;28;20398;-71
2021/12/25 00:46:52;;;;;;;9.80;5.60;;;15.50;75.20;;;;;;1988426;28;20434;-71
2021/12/25 00:47:51;;;;;;;15.53;7.23;;;15.50;72.80;;;;;;1988668;28;20222;-71
2021/12/25 00:48:49;;;;;;;15.83;6.17;;;15.50;68.80;;;;;;1989080;28;20174;-71
2021/12/25 00:49:48;;;;;;;15.33;6.50;;;15.50;67.40;;;;;;1989200;28;20258;-70
2021/12/25 00:50:46;;;;;;;15.07;6.53;;;15.50;69.70;;;;;;1989335;28;20229;-71
2021/12/25 00:51:45;;;;;;;14.53;5.87;;;15.50;68.20;;;;;;1989288;28;20186;-71
2021/12/25 00:52:44;;;;;;;12.33;5.70;;;15.50;70.60;;;;;;1988392;28;20653;-71
2021/12/25 00:53:42;;;;;;;14.63;6.10;;;15.40;79.70;;;;;;1989161;28;20178;-70
2021/12/25 00:54:41;;;;;;;15.43;6.47;;;15.70;76.10;;;;;;1989178;28;20178;-70
2021/12/25 00:55:40;;;;;;;11.57;6.17;;;15.50;72.70;;;;;;1989266;28;20237;-70
2021/12/25 00:56:38;;;;;;;11.30;5.80;;;15.50;72.40;;;;;;1989037;28;20198;-70
2021/12/25 00:57:38;;;;;;;15.20;6.67;;;15.50;72.40;;;;;;1989144;28;20257;-70
2021/12/25 00:58:36;;;;;;;14.10;6.55;;;15.40;75.10;;;;;;1989149;28;20405;-70
2021/12/25 00:59:35;;;;;;;15.23;6.00;;;15.40;66.90;;;;;;1989074;28;20193;-70
2021/12/25 01:00:34;;;;;;;19.17;6.03;;;15.40;68.70;;;;;;1989081;28;20601;-70
2021/12/25 01:01:33;;;;;;;13.20;6.07;;;15.40;74.30;;;;;;1989123;28;20584;-70
2021/12/25 01:02:31;;;;;;;14.00;6.32;;;15.60;76.30;;;;;;1989002;28;20445;-69
2021/12/25 01:03:30;;;;;;;13.57;6.20;;;15.40;79.60;;;;;;1989024;28;20206;-70
2021/12/25 01:04:29;;;;;;;10.27;5.17;;;;;;;;;;1989018;28;20181;-69
2021/12/25 01:05:27;;;;;;;14.67;6.23;;;16.40;80.70;;;;;;1989115;28;20181;-70
2021/12/25 01:06:26;;;;;;;15.97;6.07;;;;;;;;;;1989023;28;20487;-70
2021/12/25 01:07:25;;;;;;;13.20;5.80;;;15.30;81.70;;;;;;1988997;28;20210;-70
2021/12/25 01:08:23;;;;;;;12.80;6.63;;;15.40;74.20;;;;;;1988936;28;20420;-70
2021/12/25 01:09:22;;;;;;;8.13;4.73;;;15.30;75.30;;;;;;1989137;28;20221;-70
2021/12/25 01:10:21;;;;;;;11.53;5.73;;;15.40;75.80;;;;;;1988356;28;20508;-71
2021/12/25 01:11:22;;;;;;;9.40;4.80;;;15.30;76.60;;;;;;1988594;28;20673;-70
2021/12/25 01:12:21;;;;;;;11.98;5.60;;;15.30;78.70;;;;;;1989001;28;20175;-71
2021/12/25 01:13:34;;;;;;;14.13;6.00;;;15.30;82.00;;;;;;1989085;28;20174;-70
2021/12/25 01:14:49;;;;;;;13.45;5.13;;;15.30;80.80;;;;;;1989104;28;20461;-70
2021/12/25 01:16:56;;;;;;;10.88;4.88;;;15.30;75.60;;;;;;1989037;28;20186;-71
2021/12/25 01:17:44;;;;;;;14.32;5.75;;;15.20;77.10;;;;;;1985968;28;20625;-70
2021/12/25 01:20:21;;;;;;;9.98;5.50;;;15.20;82.40;;;;;;1988271;28;20191;-70
2021/12/25 01:23:13;;;;;;;7.95;4.45;;;15.20;80.80;;;;;;1989088;28;20162;-70
2021/12/25 01:26:50;;;;;;;8.52;4.90;;;14.30;79.20;;;;;;1988955;28;20183;-70
2021/12/25 01:30:15;;;;;;;10.07;4.70;;;15.20;67.70;;;;;;1988978;28;20155;-70
2021/12/25 01:32:33;;;;;;;10.50;4.45;;;15.10;67.90;;;;;;1988177;28;20198;-70
2021/12/25 01:35:36;;;;;;;6.47;4.10;;;15.10;77.60;;;;;;1995774;28;20193;-70
2021/12/25 01:40:14;;;;;;;8.17;3.80;;;15.10;75.20;;;;;;1988934;28;20159;-70
2021/12/25 01:41:29;;;;;;;10.02;4.60;;;15.20;74.50;;;;;;1988897;28;20586;-70
2021/12/25 01:47:50;;;;;;;7.30;3.40;;;15.10;74.30;;;;;;1988918;28;20571;-71
2021/12/25 01:48:48;;;;;;;6.78;3.92;;;15.10;74.40;;;;;;1988891;28;20214;-70
2021/12/25 01:49:47;;;;;;;7.40;3.90;;;15.10;74.50;;;;;;1988196;28;20265;-70
2021/12/25 01:50:47;;;;;;;8.80;4.03;;;15.20;74.70;;;;;;1988408;28;20171;-70
2021/12/25 01:51:45;;;;;;;4.28;2.70;;;15.20;76.20;;;;;;1988879;28;20177;-70
2021/12/25 01:52:44;;;;;;;5.73;3.37;;;15.20;76.80;;;;;;1988798;28;20178;-70
2021/12/25 01:53:42;;;;;;;7.47;3.73;;;15.20;75.60;;;;;;1988922;28;20826;-70
2021/12/25 01:54:41;;;;;;;5.00;3.10;;;15.10;75.30;;;;;;1988863;28;20182;-70
2021/12/25 01:55:40;;;;;;;4.90;3.27;;;15.20;76.30;;;;;;1988765;28;20180;-70
2021/12/25 01:56:39;;;;;;;6.07;3.93;;;15.20;79.50;;;;;;1988803;28;20190;-70
2021/12/25 01:57:38;;;;;;;6.15;3.15;;;;;;;;;;1988924;28;20481;-71
2021/12/25 01:58:38;;;;;;;7.05;3.88;;;;;;;;;;1988818;28;20213;-71
2021/12/25 01:59:37;;;;;;;7.95;3.80;;;15.10;87.40;;;;;;1988888;28;20262;-71
2021/12/25 02:00:50;;;;;;;7.40;3.77;;;15.20;81.70;;;;;;1988751;28;20179;-70
2021/12/25 02:01:49;;;;;;;5.43;3.58;;;;;;;;;;1988932;28;20409;-71
2021/12/25 02:02:48;;;;;;;6.00;3.22;;;15.10;86.20;;;;;;1989019;28;20166;-70
2021/12/25 02:03:47;;;;;;;6.88;3.95;;;15.10;80.20;;;;;;1988595;28;20186;-71
2021/12/25 02:04:46;;;;;;;5.73;3.40;;;15.10;82.90;;;;;;1989835;28;20522;-71
2021/12/25 02:05:44;;;;;;;5.60;2.70;;;15.10;75.00;;;;;;1990463;28;20198;-71
2021/12/25 02:06:43;;;;;;;6.77;3.90;;;15.10;74.60;;;;;;1990242;28;20240;-71
2021/12/25 02:07:42;;;;;;;5.63;3.47;;;15.10;85.90;;;;;;1990403;28;20174;-71
2021/12/25 02:08:43;;;;;;;7.03;3.57;;;15.10;78.60;;;;;;1990427;28;20527;-69
2021/12/25 02:09:41;;;;;;;6.55;3.38;;;15.10;78.60;;;;;;1990480;28;20171;-70
2021/12/25 02:10:40;;;;;;;5.83;3.17;;;15.10;74.60;;;;;;1990387;28;20511;-70
2021/12/25 02:11:39;;;;;;;5.37;3.27;;;15.10;74.90;;;;;;1990513;28;20178;-69
2021/12/25 02:12:37;;;;;;;10.47;3.67;;;15.10;74.40;;;;;;1990316;28;20198;-70
2021/12/25 02:13:37;;;;;;;8.27;3.93;;;15.10;74.70;;;;;;1990384;28;20179;-70
2021/12/25 02:14:37;;;;;;;5.15;3.17;;;15.10;76.70;;;;;;1990443;28;20412;-70
2021/12/25 02:15:36;;;;;;;7.28;3.22;;;15.10;75.60;;;;;;1990425;28;20537;-70
2021/12/25 02:16:51;;;;;;;5.90;3.40;;;15.10;76.40;;;;;;1990263;28;20277;-70
2021/12/25 02:20:12;;;;;;;4.75;2.97;;;15.00;75.00;;;;;;1990500;28;20159;-70
2021/12/25 02:21:20;;;;;;;4.45;2.75;;;15.00;75.10;;;;;;1990234;28;20162;-70
2021/12/25 02:22:20;;;;;;;7.13;3.90;;;15.00;76.40;;;;;;1990370;28;20159;-70
2021/12/25 02:23:22;;;;;;;5.40;2.90;;;15.00;78.00;;;;;;1990299;28;20206;-70
2021/12/25 02:24:21;;;;;;;5.30;3.03;;;15.00;80.80;;;;;;1990190;28;20178;-70
2021/12/25 02:25:22;;;;;;;3.70;3.20;;;15.00;79.80;;;;;;1989601;28;20425;-70
2021/12/25 02:26:21;;;;;;;4.70;2.70;;;15.00;81.00;;;;;;1989613;28;20273;-70
2021/12/25 02:27:20;;;;;;;4.60;3.00;;;15.10;78.90;;;;;;1990448;28;20167;-70
2021/12/25 02:28:19;;;;;;;7.40;2.97;;;15.00;79.90;;;;;;1990268;28;20515;-70
2021/12/25 02:29:17;;;;;;;4.80;3.47;;;15.00;83.20;;;;;;1990340;28;20170;-70
2021/12/25 02:30:16;;;;;;;7.30;2.90;;;15.00;81.40;;;;;;1990090;28;20181;-71
2021/12/25 02:31:16;;;;;;;6.57;3.13;;;15.00;84.00;;;;;;1990152;28;20228;-71
2021/12/25 02:32:14;;;;;;;3.63;2.90;;;14.90;81.00;;;;;;1990019;28;20222;-69
2021/12/25 02:33:13;;;;;;;3.70;2.57;;;14.90;89.20;;;;;;1990195;28;20672;-69
2021/12/25 02:34:12;;;;;;;4.30;2.97;;;14.90;84.60;;;;;;1990322;28;20564;-71
2021/12/25 02:35:14;;;;;;;4.43;3.10;;;14.90;89.30;;;;;;1990076;28;20201;-70
2021/12/25 02:36:14;;;;;;;4.93;2.67;;;14.90;84.30;;;;;;1990180;28;20178;-71
2021/12/25 02:37:12;;;;;;;9.10;3.22;;;14.90;81.80;;;;;;1990173;28;20535;-71
2021/12/25 02:38:12;;;;;;;5.80;2.73;;;14.90;82.20;;;;;;1990237;28;20210;-69
2021/12/25 02:39:11;;;;;;;4.88;3.20;;;14.90;83.90;;;;;;1990073;28;20555;-70
2021/12/25 02:40:12;;;;;;;4.40;2.80;;;14.80;82.70;;;;;;1990307;28;20280;-70
2021/12/25 02:41:12;;;;;;;3.67;2.15;;;14.80;85.50;;;;;;1990053;28;20406;-71
2021/12/25 02:42:11;;;;;;;4.63;2.92;;;14.90;86.30;;;;;;1990210;28;20626;-70
2021/12/25 02:43:11;;;;;;;4.23;2.80;;;14.90;87.20;;;;;;1990184;28;20289;-70
2021/12/25 02:44:10;;;;;;;5.32;2.72;;;;;;;;;;1990195;28;20261;-70
2021/12/25 02:45:16;;;;;;;4.60;2.72;;;14.80;88.60;;;;;;1990125;28;20174;-71
2021/12/25 02:46:15;;;;;;;5.63;2.50;;;14.90;87.00;;;;;;1990118;28;20646;-70
2021/12/25 02:47:19;;;;;;;8.57;3.03;;;15.40;89.60;;;;;;1990067;28;20192;-70
2021/12/25 02:48:20;;;;;;;6.20;2.58;;;14.80;90.20;;;;;;1990162;28;20151;-70
2021/12/25 02:49:18;;;;;;;4.38;2.65;;;14.80;80.90;;;;;;1990144;28;20174;-70
2021/12/25 02:50:28;;;;;;;8.30;2.83;;;14.80;76.20;;;;;;1989596;28;20701;-70
2021/12/25 02:51:27;;;;;;;4.03;1.92;;;15.00;76.60;;;;;;1989796;28;20266;-70
2021/12/25 02:52:26;;;;;;;5.70;2.78;;;14.80;79.10;;;;;;1990343;28;20698;-70
2021/12/25 02:53:24;;;;;;;2.93;2.13;;;14.80;80.30;;;;;;1990043;28;20201;-71
2021/12/25 02:54:23;;;;;;;4.80;2.80;;;14.80;81.50;;;;;;1990073;28;20191;-69
2021/12/25 02:55:21;;;;;;;5.40;3.00;;;14.90;83.20;;;;;;1990798;28;20687;-73
2021/12/25 02:56:20;;;;;;;3.70;2.73;;;14.80;74.80;;;;;;1990450;28;20202;-71
2021/12/25 02:57:18;;;;;;;3.43;2.33;;;14.80;72.50;;;;;;1990632;28;20242;-71
2021/12/25 02:58:19;;;;;;;4.63;2.87;;;14.80;72.00;;;;;;1990889;28;20216;-73
2021/12/25 02:59:18;;;;;;;6.32;2.42;;;14.70;71.90;;;;;;1989727;28;20175;-71
2021/12/25 03:00:46;;;;;;;6.10;2.90;;;14.70;72.60;;;;;;1989826;28;20218;-70
2021/12/25 03:01:46;;;;;;;3.95;2.45;;;14.70;72.40;;;;;;1990497;28;20192;-70
2021/12/25 03:02:44;;;;;;;4.03;2.53;;;14.70;72.40;;;;;;1990989;28;20233;-71
2021/12/25 03:03:44;;;;;;;3.57;2.40;;;14.80;72.50;;;;;;1990767;28;20210;-71
2021/12/25 03:04:47;;;;;;;4.25;1.98;;;14.90;72.00;;;;;;1990850;28;20162;-70
2021/12/25 03:05:47;;;;;;;2.60;2.22;;;14.70;72.00;;;;;;1990874;28;20174;-71
2021/12/25 03:06:45;;;;;;;4.43;2.80;;;14.80;73.30;;;;;;1990675;28;20191;-69
2021/12/25 03:07:44;;;;;;;4.03;2.57;;;14.70;75.20;;;;;;1990278;28;20175;-70
2021/12/25 03:08:44;;;;;;;2.75;2.03;;;14.70;75.60;;;;;;1990198;28;20276;-70
2021/12/25 03:09:43;;;;;;;2.75;1.98;;;14.70;74.80;;;;;;1989958;28;20178;-71
2021/12/25 03:10:43;;;;;;;3.70;2.95;;;14.70;75.20;;;;;;1989804;28;20178;-71
2021/12/25 03:11:41;;;;;;;3.95;2.20;;;14.70;77.00;;;;;;1989885;28;20535;-71
2021/12/25 03:12:53;;;;;;;3.70;2.10;;;14.70;76.10;;;;;;1989860;28;20175;-71
2021/12/25 03:14:04;;;;;;;2.90;2.17;;;14.70;75.30;;;;;;1989913;28;20297;-70
2021/12/25 03:15:07;;;;;;;2.78;2.13;;;14.70;74.80;;;;;;1990014;28;20582;-70
2021/12/25 03:16:09;;;;;;;3.22;2.15;;;14.70;74.50;;;;;;1989098;28;20165;-70
2021/12/25 03:17:09;;;;;;;5.43;2.72;;;14.70;74.50;;;;;;1989972;28;20175;-70
2021/12/25 03:18:08;;;;;;;4.18;2.50;;;14.70;74.50;;;;;;1989999;28;20288;-69
2021/12/25 03:19:13;;;;;;;4.80;2.67;;;14.70;74.40;;;;;;1989894;28;20185;-70
2021/12/25 03:20:12;;;;;;;3.33;2.45;;;14.70;74.10;;;;;;1989383;28;20181;-71
2021/12/25 03:21:12;;;;;;;5.68;2.10;;;14.60;73.90;;;;;;1989441;28;20174;-70
2021/12/25 03:22:10;;;;;;;3.35;2.35;;;14.60;74.00;;;;;;1989909;28;20586;-70
2021/12/25 03:23:09;;;;;;;7.90;2.30;;;14.60;74.10;;;;;;1990023;28;20229;-69
2021/12/25 03:24:07;;;;;;;2.60;1.97;;;14.60;74.50;;;;;;1990681;28;20174;-69
2021/12/25 03:25:11;;;;;;;2.10;1.90;;;14.60;75.90;;;;;;1990437;28;20222;-69
2021/12/25 03:26:10;;;;;;;3.00;2.33;;;14.60;75.20;;;;;;1990772;28;20186;-70
2021/12/25 03:27:08;;;;;;;4.10;2.40;;;14.60;76.10;;;;;;1990735;28;20618;-70
2021/12/25 03:28:07;;;;;;;2.87;2.30;;;14.60;75.10;;;;;;1990218;28;20406;-70
2021/12/25 03:29:08;;;;;;;4.10;2.77;;;14.60;74.80;;;;;;1990408;28;20496;-70
2021/12/25 03:30:08;;;;;;;4.75;2.50;;;14.60;74.50;;;;;;1989790;28;20163;-70
2021/12/25 03:31:16;;;;;;;3.40;2.30;;;14.60;75.10;;;;;;1989919;28;20460;-70
2021/12/25 03:32:15;;;;;;;2.75;2.17;;;14.60;76.00;;;;;;1989081;28;20305;-70
2021/12/25 03:33:15;;;;;;;4.80;2.23;;;14.60;76.30;;;;;;1989217;28;20650;-71
2021/12/25 03:34:14;;;;;;;2.67;2.33;;;14.60;78.20;;;;;;1989754;28;20363;-69
2021/12/25 03:35:13;;;;;;;3.00;2.00;;;14.60;84.20;;;;;;1989908;28;20216;-71
2021/12/25 03:36:12;;;;;;;2.97;2.50;;;14.50;75.00;;;;;;1989892;28;20292;-71
2021/12/25 03:37:10;;;;;;;3.90;2.10;;;14.60;74.10;;;;;;1990665;28;20484;-70
2021/12/25 03:38:12;;;;;;;7.33;2.60;;;14.60;75.40;;;;;;1991280;28;20538;-70
2021/12/25 03:39:11;;;;;;;3.53;2.22;;;14.60;77.70;;;;;;1991053;28;20586;-72
2021/12/25 03:40:10;;;;;;;4.90;2.25;;;14.60;80.50;;;;;;1991093;28;20192;-70
2021/12/25 03:41:10;;;;;;;3.35;2.50;;;14.60;80.60;;;;;;1990978;28;20531;-71
2021/12/25 03:42:08;;;;;;;3.28;1.90;;;14.60;76.70;;;;;;1990353;28;20185;-71
2021/12/25 03:43:08;;;;;;;2.30;1.97;;;14.60;79.20;;;;;;1989776;28;20604;-71
2021/12/25 03:44:06;;;;;;;2.95;2.22;;;14.50;77.00;;;;;;1990609;28;20256;-70
2021/12/25 03:45:05;;;;;;;3.17;2.30;;;14.50;75.00;;;;;;1991657;28;20237;-70
2021/12/25 03:46:04;;;;;;;3.23;2.40;;;14.50;76.50;;;;;;1991329;28;20670;-70
2021/12/25 03:47:12;;;;;;;3.97;2.47;;;14.50;80.40;;;;;;1991956;28;20536;-70
2021/12/25 03:49:27;;;;;;;4.25;2.08;;;14.50;79.20;;;;;;1992210;28;20183;-70
2021/12/25 03:57:56;;;;;;;3.10;2.28;;;14.40;77.20;;;;;;1991109;28;20163;-70
2021/12/25 03:58:54;;;;;;;2.90;2.20;;;14.40;74.50;;;;;;1990739;28;20155;-70
2021/12/25 03:59:59;;;;;;;7.63;2.30;;;14.40;74.10;;;;;;1990205;28;20214;-70
2021/12/25 04:01:13;;;;;;;6.72;2.90;;;14.50;75.10;;;;;;1990127;28;20179;-70
2021/12/25 04:02:18;;;;;;;2.38;2.10;;;14.50;76.70;;;;;;1989562;28;20170;-70
2021/12/25 04:03:26;;;;;;;3.00;2.10;;;14.40;77.70;;;;;;1989455;28;20217;-70
2021/12/25 04:04:33;;;;;;;2.70;1.85;;;14.40;77.60;;;;;;1989582;28;20249;-70
2021/12/25 04:05:33;;;;;;;3.67;2.28;;;14.40;77.90;;;;;;1989499;28;20520;-70
2021/12/25 04:06:33;;;;;;;4.70;2.13;;;14.40;72.50;;;;;;1989471;28;20198;-71
2021/12/25 04:08:51;;;;;;;3.92;2.30;;;14.40;68.50;;;;;;1989440;28;20178;-71
2021/12/25 04:09:50;;;;;;;2.60;1.90;;;14.40;68.30;;;;;;1989473;28;20570;-70
2021/12/25 04:11:00;;;;;;;5.47;2.83;;;14.40;68.10;;;;;;1989448;28;20178;-70
2021/12/25 04:12:06;;;;;;;4.18;2.00;;;14.40;68.20;;;;;;1989523;28;20159;-70
2021/12/25 04:13:09;;;;;;;4.78;2.55;;;14.50;68.30;;;;;;1989367;28;20633;-70
2021/12/25 04:14:07;;;;;;;2.42;1.90;;;14.40;67.90;;;;;;1989321;28;20186;-70
2021/12/25 04:15:08;;;;;;;3.43;2.50;;;14.40;67.40;;;;;;1989489;28;20213;-70
2021/12/25 04:16:06;;;;;;;2.40;2.20;;;14.40;66.70;;;;;;1989302;28;20175;-70
2021/12/25 04:17:06;;;;;;;3.27;2.50;;;14.40;66.30;;;;;;1989495;28;20182;-71
2021/12/25 04:18:05;;;;;;;2.92;2.15;;;14.40;65.80;;;;;;1989326;28;20179;-71
2021/12/25 04:19:03;;;;;;;4.97;2.20;;;14.40;65.60;;;;;;1989412;28;20187;-70
2021/12/25 04:20:04;;;;;;;4.60;2.37;;;14.40;65.30;;;;;;1989361;28;20638;-70
2021/12/25 04:21:03;;;;;;;5.45;2.50;;;14.40;65.10;;;;;;1988718;28;20249;-70
2021/12/25 04:22:07;;;;;;;5.47;2.03;;;14.40;64.80;;;;;;1988832;28;20193;-70
2021/12/25 04:23:09;;;;;;;3.97;2.22;;;14.40;64.50;;;;;;1989383;28;20730;-70
2021/12/25 04:24:08;;;;;;;2.90;2.25;;;14.40;64.50;;;;;;1989292;28;20370;-71
2021/12/25 04:25:07;;;;;;;5.33;2.60;;;14.40;64.50;;;;;;1989449;28;20183;-70
2021/12/25 04:26:06;;;;;;;5.05;2.72;;;14.40;64.40;;;;;;1989170;28;20179;-70
2021/12/25 04:27:08;;;;;;;4.07;2.15;;;14.40;64.40;;;;;;1989168;28;20174;-70
2021/12/25 04:29:37;;;;;;;3.78;2.05;;;14.30;64.50;;;;;;1980729;28;20193;-70
2021/12/25 04:31:05;;;;;;;4.15;2.05;;;14.30;64.20;;;;;;1988957;28;20202;-70
2021/12/25 04:42:55;;;;;;;3.30;1.98;;;14.20;64.80;;;;;;1988290;28;20558;-69
2021/12/25 04:48:35;;;;;;;1.92;1.70;;;14.20;64.80;;;;;;1989179;28;20159;-70
2021/12/25 05:02:05;;;;;;;3.17;2.00;;;14.20;65.80;;;;;;1989039;28;20154;-71
2021/12/25 05:03:36;;;;;;;3.65;2.15;;;14.10;65.90;;;;;;1988966;28;20587;-71
2021/12/25 05:04:37;;;;;;;2.20;1.90;;;14.10;65.80;;;;;;1988839;28;20281;-71
2021/12/25 05:05:36;;;;;;;7.93;2.25;;;14.10;66.00;;;;;;1988441;28;20291;-70
2021/12/25 05:06:35;;;;;;;4.67;2.00;;;14.10;66.10;;;;;;1988426;28;20209;-71
2021/12/25 05:07:33;;;;;;;3.10;1.70;;;14.10;66.20;;;;;;1989075;28;20461;-70
2021/12/25 05:08:32;;;;;;;3.90;2.00;;;14.20;66.70;;;;;;1989012;28;20174;-70
2021/12/25 05:09:31;;;;;;;4.80;2.50;;;14.20;67.20;;;;;;1989096;28;20198;-71
2021/12/25 05:10:29;;;;;;;4.27;2.60;;;14.30;68.10;;;;;;1988964;28;20178;-71
2021/12/25 05:11:28;;;;;;;4.10;2.77;;;14.20;68.20;;;;;;1988994;28;20178;-71
2021/12/25 05:12:26;;;;;;;4.00;1.90;;;14.20;68.50;;;;;;1989108;28;20292;-71
2021/12/25 05:13:25;;;;;;;4.33;2.17;;;14.20;69.30;;;;;;1989082;28;20583;-71
2021/12/25 05:14:23;;;;;;;3.93;2.03;;;14.20;69.80;;;;;;1988992;28;20196;-71
2021/12/25 05:15:22;;;;;;;2.40;1.60;;;14.20;70.60;;;;;;1988974;28;20528;-71
2021/12/25 05:16:22;;;;;;;2.93;1.80;;;14.20;71.70;;;;;;1988965;28;20294;-71
2021/12/25 05:17:21;;;;;;;3.20;1.88;;;14.20;77.10;;;;;;1988983;28;20178;-70
2021/12/25 05:18:20;;;;;;;2.67;1.80;;;14.10;76.80;;;;;;1988297;28;20209;-71
2021/12/25 05:19:19;;;;;;;3.10;2.10;;;14.20;67.60;;;;;;1988480;28;20675;-71
2021/12/25 05:20:18;;;;;;;4.03;2.53;;;14.10;70.90;;;;;;1989096;28;20765;-71
2021/12/25 05:21:18;;;;;;;2.30;1.90;;;14.30;76.60;;;;;;1988881;28;20626;-70
2021/12/25 05:22:18;;;;;;;4.15;2.50;;;14.20;80.50;;;;;;1988942;28;20251;-71
2021/12/25 05:23:16;;;;;;;7.43;2.20;;;14.10;77.40;;;;;;1988888;28;20217;-71
2021/12/25 05:24:15;;;;;;;3.00;1.90;;;14.10;79.90;;;;;;1988949;28;20253;-71
2021/12/25 05:25:15;;;;;;;3.80;2.17;;;14.10;81.40;;;;;;1988881;28;20305;-70
2021/12/25 05:26:15;;;;;;;2.22;1.98;;;14.10;80.50;;;;;;1988803;28;20181;-71
2021/12/25 05:27:14;;;;;;;2.72;1.85;;;14.10;80.40;;;;;;1989046;28;20659;-71
2021/12/25 05:28:14;;;;;;;3.65;2.10;;;14.10;79.30;;;;;;1988912;28;20615;-70
2021/12/25 05:29:12;;;;;;;3.53;1.90;;;14.10;79.70;;;;;;1988896;28;20586;-71
2021/12/25 05:30:11;;;;;;;3.73;1.80;;;14.20;78.60;;;;;;1988985;28;20221;-70
2021/12/25 05:31:13;;;;;;;3.17;1.80;;;14.20;75.20;;;;;;1988849;28;20187;-70
2021/12/25 05:32:13;;;;;;;2.45;1.75;;;14.30;77.90;;;;;;1988841;28;20234;-70
2021/12/25 05:33:11;;;;;;;5.95;2.22;;;14.20;76.50;;;;;;1988890;28;20174;-71
2021/12/25 05:34:10;;;;;;;2.47;1.80;;;;;;;;;;1988918;28;20622;-71
2021/12/25 05:35:10;;;;;;;4.30;2.00;;;14.50;82.50;;;;;;1988820;28;20205;-71
2021/12/25 05:36:09;;;;;;;2.23;1.97;;;;;;;;;;1988860;28;20313;-70
2021/12/25 05:37:07;;;;;;;4.00;2.07;;;14.30;59.10;;;;;;1988886;28;20176;-70
2021/12/25 05:38:13;;;;;;;3.00;1.70;;;14.30;59.40;;;;;;1989033;28;20406;-71
2021/12/25 05:39:13;;;;;;;3.67;2.17;;;14.40;59.30;;;;;;1991138;28;20161;-71
2021/12/25 05:40:13;;;;;;;3.10;1.98;;;14.40;59.20;;;;;;1991487;28;20174;-71
2021/12/25 05:41:12;;;;;;;7.93;2.88;;;14.40;59.30;;;;;;1991597;28;20251;-71
2021/12/25 05:42:10;;;;;;;3.33;1.75;;;14.40;59.10;;;;;;1991430;28;20206;-69
2021/12/25 05:43:09;;;;;;;3.67;2.00;;;14.40;59.20;;;;;;1991407;28;20174;-69
2021/12/25 05:44:08;;;;;;;4.13;1.93;;;14.40;59.40;;;;;;1991486;28;20200;-69
2021/12/25 05:45:07;;;;;;;2.13;1.67;;;14.40;59.40;;;;;;1991492;28;20232;-70
2021/12/25 05:46:06;;;;;;;3.35;1.98;;;14.40;59.40;;;;;;1991445;28;20171;-70
2021/12/25 05:47:04;;;;;;;2.30;1.80;;;14.40;59.40;;;;;;1991497;28;20174;-70
2021/12/25 05:48:03;;;;;;;2.40;2.20;;;14.40;59.30;;;;;;1991444;28;20233;-69
2021/12/25 05:49:02;;;;;;;3.50;1.67;;;14.50;59.50;;;;;;1991390;28;20257;-69
2021/12/25 05:50:00;;;;;;;2.13;1.87;;;14.50;59.10;;;;;;1991509;28;20889;-69
2021/12/25 05:50:59;;;;;;;3.40;1.77;;;14.50;59.30;;;;;;1991109;28;20206;-69
2021/12/25 05:51:57;;;;;;;2.03;1.63;;;14.50;59.70;;;;;;1983064;29;20178;-69
2021/12/25 05:52:56;;;;;;;4.13;1.77;;;14.50;59.80;;;;;;1990262;28;20182;-69
2021/12/25 05:53:55;;;;;;;3.80;1.80;;;14.50;59.60;;;;;;1991390;28;20225;-68
2021/12/25 05:54:54;;;;;;;3.38;2.13;;;14.50;59.60;;;;;;1991487;28;20189;-70
2021/12/25 05:55:52;;;;;;;4.07;1.40;;;14.50;59.80;;;;;;1991352;28;20606;-70
2021/12/25 05:56:51;;;;;;;1.53;1.43;;;14.50;60.40;;;;;;1991350;28;20637;-70
2021/12/25 05:57:50;;;;;;;3.60;1.90;;;14.50;60.20;;;;;;1991455;28;20633;-70
2021/12/25 05:58:48;;;;;;;2.00;1.80;;;14.50;60.00;;;;;;1990764;28;20418;-71
2021/12/25 05:59:47;;;;;;;2.67;2.07;;;14.50;60.00;;;;;;1990843;28;20237;-70
2021/12/25 06:00:45;;;;;;;3.73;2.00;;;14.50;60.20;;;;;;1991260;28;20570;-71
2021/12/25 06:01:44;;;;;;;2.83;1.97;;;14.50;60.90;;;;;;1991516;28;20178;-71
2021/12/25 06:02:45;;;;;;;3.20;1.80;;;14.60;60.70;;;;;;1991497;28;20261;-70
2021/12/25 06:03:43;;;;;;;4.45;2.35;;;14.50;60.40;;;;;;1991230;28;20259;-70
2021/12/25 06:04:42;;;;;;;2.23;1.77;;;14.50;60.50;;;;;;1991370;28;20254;-70
2021/12/25 06:05:40;;;;;;;8.10;1.80;;;14.50;60.70;;;;;;1991368;28;20565;-70
2021/12/25 06:06:39;;;;;;;2.20;1.60;;;14.50;60.50;;;;;;1991311;28;20617;-70
2021/12/25 06:07:37;;;;;;;5.73;2.33;;;14.50;60.60;;;;;;1991374;28;20593;-69
2021/12/25 06:08:36;;;;;;;2.87;1.60;;;14.50;61.00;;;;;;1991297;28;20535;-70
2021/12/25 06:09:34;;;;;;;2.83;1.77;;;14.50;61.30;;;;;;1991334;28;20641;-70
2021/12/25 06:10:33;;;;;;;2.50;2.07;;;14.50;61.80;;;;;;1991387;28;20542;-69
2021/12/25 06:11:32;;;;;;;2.90;1.60;;;14.50;62.30;;;;;;1991358;28;20263;-70
2021/12/25 06:12:31;;;;;;;2.67;2.03;;;14.50;63.10;;;;;;1991327;28;20221;-69
2021/12/25 06:13:30;;;;;;;2.55;1.77;;;14.50;64.80;;;;;;1991366;28;20170;-70
2021/12/25 06:14:29;;;;;;;3.72;2.28;;;14.50;59.50;;;;;;1991373;28;20193;-69
2021/12/25 06:15:28;;;;;;;2.90;1.70;;;14.50;59.20;;;;;;1991349;28;20182;-70
2021/12/25 06:16:27;;;;;;;2.87;2.10;;;14.50;59.30;;;;;;1991282;28;20214;-70
2021/12/25 06:17:26;;;;;;;2.27;1.60;;;14.50;59.60;;;;;;1991417;28;20558;-70
2021/12/25 06:18:24;;;;;;;2.40;1.80;;;14.50;60.50;;;;;;1991299;28;20583;-69
2021/12/25 06:19:23;;;;;;;1.67;1.40;;;14.60;61.30;;;;;;1991313;28;20190;-69